Time;durP1;ratioP1;P1;durP2;ratioP2;P2;SDS_P1;SDS_P2;PMS_P1;PMS_P2;Temp;Humidity;BMP_temperature;BMP_pressure;BME280_temperature;BME280_humidity;BME280_pressure;Samples;Min_cycle;Max_cycle;Signal;HPM_P1;HPM_P2
2022/03/09 04:50:39;;;;;;;;;;;3.20;1.00;;;;;;5151692;27;19973;-74
2022/03/09 04:53:05;;;;;;;;;;;;;;;;;;5150556;27;20280;-74
2022/03/09 04:55:31;;;;;;;;;;;;;;;;;;5151330;27;19912;-74
2022/03/09 04:57:56;;;;;;;;;;;3.10;1.00;;;;;;5150581;27;19931;-75
2022/03/09 05:00:22;;;;;;;;;;;3.00;1.00;;;;;;5151303;27;19908;-74
2022/03/09 05:02:47;;;;;;;;;;;3.00;1.00;;;;;;5151255;27;19956;-74
2022/03/09 05:05:13;;;;;;;;;;;3.00;1.00;;;;;;5150398;27;19976;-74
2022/03/09 05:07:40;;;;;;;;;;;3.10;1.00;;;;;;5151074;27;19915;-74
2022/03/09 05:10:06;;;;;;;;;;;3.00;1.00;;;;;;5150201;27;19998;-74
2022/03/09 05:12:31;;;;;;;;;;;2.90;1.00;;;;;;5151067;27;20002;-75
2022/03/09 05:14:57;;;;;;;;;;;2.90;1.00;;;;;;5131698;27;19907;-75
2022/03/09 05:17:22;;;;;;;;;;;2.80;1.00;;;;;;5150899;27;20279;-74
2022/03/09 05:19:48;;;;;;;;;;;2.80;1.00;;;;;;5150770;27;19918;-74
2022/03/09 05:22:13;;;;;;;;;;;2.80;1.00;;;;;;5150060;27;19923;-74
2022/03/09 05:24:39;;;;;;;;;;;2.80;1.00;;;;;;5150850;27;19915;-74
2022/03/09 05:27:04;;;;;;;;;;;2.80;1.00;;;;;;5148254;27;19971;-74
2022/03/09 05:29:30;;;;;;;;;;;2.70;1.00;;;;;;5150663;27;19911;-74
2022/03/09 05:31:55;;;;;;;;;;;2.70;1.00;;;;;;5131376;27;19908;-74
2022/03/09 05:34:21;;;;;;;;;;;2.70;1.00;;;;;;5132104;27;20014;-74
2022/03/09 05:36:46;;;;;;;;;;;2.60;1.00;;;;;;5150638;27;19930;-74
2022/03/09 05:39:12;;;;;;;;;;;2.70;1.00;;;;;;5149696;27;20159;-74
2022/03/09 05:41:37;;;;;;;;;;;2.60;1.00;;;;;;5150479;27;19911;-74
2022/03/09 05:44:03;;;;;;;;;;;2.60;1.00;;;;;;5147166;27;20002;-74
2022/03/09 05:46:28;;;;;;;;;;;2.60;1.00;;;;;;5147065;27;19911;-74
2022/03/09 05:48:54;;;;;;;;;;;;;;;;;;5149460;27;20006;-74
2022/03/09 05:51:20;;;;;;;;;;;2.60;1.00;;;;;;5150158;27;19911;-74
2022/03/09 05:53:45;;;;;;;;;;;2.50;1.00;;;;;;5150329;27;19911;-74
2022/03/09 05:56:11;;;;;;;;;;;2.40;1.00;;;;;;5130829;27;20656;-74
2022/03/09 05:58:37;;;;;;;;;;;;;;;;;;5150132;27;19908;-74
2022/03/09 06:01:02;;;;;;;;;;;2.40;1.00;;;;;;5139122;27;19914;-74
2022/03/09 06:03:28;;;;;;;;;;;2.50;1.00;;;;;;5136230;27;19907;-74
2022/03/09 06:05:54;;;;;;;;;;;;;;;;;;5122396;27;19912;-74
2022/03/09 06:08:20;;;;;;;;;;;;;;;;;;5096633;28;20291;-74
2022/03/09 06:10:45;;;;;;;;;;;2.60;1.00;;;;;;5115679;28;19908;-74
2022/03/09 06:13:11;;;;;;;;;;;2.60;1.00;;;;;;5096381;28;19911;-74
2022/03/09 06:15:36;;;;;;;;;;;2.60;1.00;;;;;;5122664;27;19907;-74
2022/03/09 06:18:02;;;;;;;;;;;2.50;1.00;;;;;;5116681;27;19912;-73
2022/03/09 06:20:27;;;;;;;;;;;2.50;1.00;;;;;;5136013;27;19912;-73
2022/03/09 06:22:53;;;;;;;;;;;2.60;1.00;;;;;;5135934;27;20001;-73
2022/03/09 06:25:19;;;;;;;;;;;2.60;1.00;;;;;;5135022;27;19968;-74
2022/03/09 06:27:46;;;;;;;;;;;2.70;1.00;;;;;;5135763;27;19907;-73
2022/03/09 06:30:12;;;;;;;;;;;2.70;1.00;;;;;;5134926;27;19915;-81
2022/03/09 06:32:38;;;;;;;;;;;2.60;1.00;;;;;;5135971;27;19908;-73
2022/03/09 06:35:04;;;;;;;;;;;2.60;1.00;;;;;;5135076;27;19907;-70
2022/03/09 06:37:29;;;;;;;;;;;2.60;1.00;;;;;;5135624;27;20098;-76
2022/03/09 06:39:58;;;;;;;;;;;;;;;;;;5135545;27;20006;-72
2022/03/09 06:42:25;;;;;;;;;;;2.70;1.00;;;;;;5135668;27;19942;-70
2022/03/09 06:44:50;;;;;;;;;;;2.80;1.00;;;;;;5135492;27;20378;-70
2022/03/09 06:47:16;;;;;;;;;;;2.80;1.00;;;;;;5123619;27;19912;-69
2022/03/09 06:49:41;;;;;;;;;;;2.90;1.00;;;;;;5114570;28;19919;-71
2022/03/09 06:52:07;;;;;;;;;;;3.00;1.00;;;;;;5117224;27;20002;-72
2022/03/09 06:54:33;;;;;;;;;;;;;;;;;;5114725;28;19908;-74
2022/03/09 06:56:59;;;;;;;;;;;;;;;;;;5114235;28;19911;-73
2022/03/09 06:59:24;;;;;;;;;;;3.10;1.00;;;;;;5114420;28;19984;-71
2022/03/09 07:01:50;;;;;;;;;;;3.10;1.00;;;;;;5114616;28;19908;-67
2022/03/09 07:04:15;;;;;;;;;;;3.20;1.00;;;;;;5113818;28;19908;-72
2022/03/09 07:06:41;;;;;;;;;;;3.20;1.00;;;;;;5114441;28;19912;-68
2022/03/09 07:09:06;;;;;;;;;;;3.30;1.00;;;;;;5116071;27;20275;-71
2022/03/09 07:11:32;;;;;;;;;;;3.30;1.00;;;;;;5122816;27;19907;-71
2022/03/09 07:13:58;;;;;;;;;;;;;;;;;;5118476;27;20000;-71
2022/03/09 07:16:24;;;;;;;;;;;3.30;1.00;;;;;;5114008;28;19907;-70
2022/03/09 07:18:49;;;;;;;;;;;3.30;1.00;;;;;;5114144;28;20364;-72
2022/03/09 07:21:15;;;;;;;;;;;3.40;1.00;;;;;;5095062;28;19912;-71
2022/03/09 07:23:40;;;;;;;;;;;;;;;;;;5114127;28;20020;-72
2022/03/09 07:26:06;;;;;;;;;;;3.40;1.00;;;;;;5113291;28;19908;-75
2022/03/09 07:28:31;;;;;;;;;;;3.40;1.00;;;;;;5113945;28;20030;-75
2022/03/09 07:30:57;;;;;;;;;;;3.40;1.00;;;;;;5114011;28;19942;-74
2022/03/09 07:33:23;;;;;;;;;;;3.50;1.00;;;;;;5113356;28;19908;-75
2022/03/09 07:35:49;;;;;;;;;;;;;;;;;;5113925;28;20281;-75
2022/03/09 07:38:14;;;;;;;;;;;3.50;1.00;;;;;;5113103;28;19908;-75
2022/03/09 07:40:40;;;;;;;;;;;3.50;1.00;;;;;;5095965;28;20369;-75
2022/03/09 07:43:06;;;;;;;;;;;3.50;1.00;;;;;;5113165;28;19966;-74
2022/03/09 07:45:31;;;;;;;;;;;3.70;1.00;;;;;;5121991;27;19908;-74
2022/03/09 07:47:57;;;;;;;;;;;3.80;1.00;;;;;;5134410;27;19916;-74
2022/03/09 07:50:23;;;;;;;;;;;3.80;1.00;;;;;;5115884;27;20384;-74
2022/03/09 07:52:48;;;;;;;;;;;3.80;1.00;;;;;;5115727;27;19960;-74
2022/03/09 07:55:14;;;;;;;;;;;3.90;1.00;;;;;;5133300;27;19946;-74
2022/03/09 07:57:39;;;;;;;;;;;4.00;1.00;;;;;;5134128;27;19908;-74
2022/03/09 08:00:06;;;;;;;;;;;;;;;;;;5133272;27;20370;-74
2022/03/09 08:02:31;;;;;;;;;;;4.10;1.00;;;;;;5133959;27;19994;-74
2022/03/09 08:04:57;;;;;;;;;;;4.10;1.00;;;;;;5133987;27;19947;-74
2022/03/09 08:07:22;;;;;;;;;;;4.20;1.00;;;;;;5133225;27;19914;-75
2022/03/09 08:09:48;;;;;;;;;;;;;;;;;;5115438;27;19918;-74
2022/03/09 08:12:14;;;;;;;;;;;4.30;1.00;;;;;;5114508;27;20256;-74
2022/03/09 08:14:39;;;;;;;;;;;4.30;1.00;;;;;;5133817;27;20002;-74
2022/03/09 08:17:05;;;;;;;;;;;;;;;;;;5133122;27;19962;-74
2022/03/09 08:19:31;;;;;;;;;;;4.60;1.00;;;;;;5133684;27;20026;-74
2022/03/09 08:21:57;;;;;;;;;;;;;;;;;;5115460;27;19912;-76
2022/03/09 08:24:22;;;;;;;;;;;4.70;1.00;;;;;;5132547;27;19998;-70
2022/03/09 08:26:49;;;;;;;;;;;4.80;1.00;;;;;;5133484;27;19907;-71
2022/03/09 08:29:15;;;;;;;;;;;;;;;;;;5132672;27;20351;-70
2022/03/09 08:31:40;;;;;;;;;;;4.90;1.00;;;;;;5115111;27;19998;-71
2022/03/09 08:34:07;;;;;;;;;;;;;;;;;;5132872;27;19908;-72
2022/03/09 08:36:32;;;;;;;;;;;5.10;1.00;;;;;;5133516;27;19990;-69
2022/03/09 08:38:58;;;;;;;;;;;5.10;1.00;;;;;;5133458;27;19908;-71
2022/03/09 08:41:26;;;;;;;;;;;5.10;1.00;;;;;;5132624;27;19907;-69
2022/03/09 08:43:52;;;;;;;;;;;5.20;1.00;;;;;;5133616;27;19937;-68
2022/03/09 08:46:17;;;;;;;;;;;5.30;1.00;;;;;;5132624;28;19908;-69
2022/03/09 08:48:44;;;;;;;;;;;5.40;1.00;;;;;;5133010;28;19919;-70
2022/03/09 08:51:09;;;;;;;;;;;5.40;1.00;;;;;;5132563;28;20371;-70
2022/03/09 08:53:35;;;;;;;;;;;;;;;;;;5132859;28;19908;-71
2022/03/09 08:56:01;;;;;;;;;;;5.60;1.00;;;;;;5133267;28;19972;-71
2022/03/09 08:58:26;;;;;;;;;;;5.50;1.00;;;;;;5132463;28;20129;-71
2022/03/09 09:00:52;;;;;;;;;;;5.60;1.00;;;;;;5133404;28;20275;-71
2022/03/09 09:03:17;;;;;;;;;;;5.70;1.00;;;;;;5132440;28;19907;-71
2022/03/09 09:05:43;;;;;;;;;;;5.80;1.00;;;;;;5114822;28;20015;-70
2022/03/09 09:08:09;;;;;;;;;;;;;;;;;;5133521;28;19908;-72
2022/03/09 09:10:35;;;;;;;;;;;5.80;1.00;;;;;;5133296;28;19908;-70
2022/03/09 09:13:01;;;;;;;;;;;5.90;1.00;;;;;;5132955;28;20382;-70
2022/03/09 09:15:28;;;;;;;;;;;6.10;1.00;;;;;;5132521;28;19903;-70
2022/03/09 09:17:57;;;;;;;;;;;6.20;1.00;;;;;;5133053;28;19908;-71
2022/03/09 09:20:25;;;;;;;;;;;6.20;1.00;;;;;;5132292;28;19934;-70
2022/03/09 09:22:53;;;;;;;;;;;6.40;1.00;;;;;;5132921;28;20039;-70
2022/03/09 09:25:19;;;;;;;;;;;6.50;1.00;;;;;;5132254;28;19907;-70
2022/03/09 09:27:45;;;;;;;;;;;;;;;;;;5114233;28;19914;-71
2022/03/09 09:30:11;;;;;;;;;;;;;;;;;;5131619;28;19911;-72
2022/03/09 09:32:36;;;;;;;;;;;6.70;1.00;;;;;;5135973;28;19913;-71
2022/03/09 09:35:02;;;;;;;;;;;6.80;1.00;;;;;;5133586;27;20390;-71
2022/03/09 09:37:27;;;;;;;;;;;6.90;1.00;;;;;;5135879;27;20504;-71
2022/03/09 09:39:53;;;;;;;;;;;7.10;1.00;;;;;;5118451;27;20355;-70
2022/03/09 09:42:22;;;;;;;;;;;7.20;1.00;;;;;;5136096;27;19908;-71
2022/03/09 09:44:47;;;;;;;;;;;7.20;1.00;;;;;;5136314;27;20357;-71
2022/03/09 09:47:14;;;;;;;;;;;;;;;;;;5136056;27;20015;-71
2022/03/09 09:49:40;;;;;;;;;;;;;;;;;;5136367;27;19926;-71
2022/03/09 09:52:06;;;;;;;;;;;7.60;1.00;;;;;;5136354;27;19907;-71
2022/03/09 09:54:32;;;;;;;;;;;;;;;;;;5135620;27;19907;-71
2022/03/09 09:56:58;;;;;;;;;;;7.80;1.00;;;;;;5136380;27;19914;-71
2022/03/09 09:59:24;;;;;;;;;;;7.80;1.00;;;;;;5135501;27;19915;-71
2022/03/09 10:01:49;;;;;;;;;;;7.80;1.00;;;;;;5136322;27;19912;-71
2022/03/09 10:04:15;;;;;;;;;;;8.00;1.00;;;;;;5135473;27;19908;-71
2022/03/09 10:06:41;;;;;;;;;;;8.10;1.00;;;;;;5136331;27;20364;-71
2022/03/09 10:09:07;;;;;;;;;;;8.10;1.00;;;;;;5135657;27;19969;-71
2022/03/09 10:11:48;;;;;;;;;;;8.40;1.00;;;;;;5135902;27;20271;-72
2022/03/09 10:14:14;;;;;;;;;;;8.80;1.00;;;;;;5135607;27;20422;-73
2022/03/09 10:16:59;;;;;;;;;;;8.80;1.00;;;;;;5136659;27;20002;-73
2022/03/09 10:19:25;;;;;;;;;;;;;;;;;;5135566;27;19907;-72
2022/03/09 10:21:50;;;;;;;;;;;8.70;1.00;;;;;;5135848;27;19915;-72
2022/03/09 10:24:18;;;;;;;;;;;8.80;1.00;;;;;;5116706;27;20348;-73
2022/03/09 10:26:45;;;;;;;;;;;9.00;1.00;;;;;;5117445;27;19908;-73
2022/03/09 10:29:11;;;;;;;;;;;;;;;;;;5135595;27;19922;-73
2022/03/09 10:31:38;;;;;;;;;;;9.20;1.00;;;;;;5135230;27;19924;-74
2022/03/09 10:34:14;;;;;;;;;;;9.40;1.00;;;;;;5135813;27;20260;-73
2022/03/09 10:36:54;;;;;;;;;;;9.70;1.00;;;;;;5117120;27;19907;-73
2022/03/09 10:39:21;;;;;;;;;;;9.90;1.00;;;;;;5134834;27;19908;-73
2022/03/09 10:41:46;;;;;;;;;;;9.70;1.00;;;;;;5135655;27;19907;-73
2022/03/09 10:44:12;;;;;;;;;;;;;;;;;;5135186;27;20275;-73
2022/03/09 10:46:38;;;;;;;;;;;;;;;;;;5134886;27;20292;-72
2022/03/09 10:49:04;;;;;;;;;;;10.10;1.00;;;;;;5135131;27;19965;-72
2022/03/09 10:51:34;;;;;;;;;;;10.30;1.00;;;;;;5134533;27;20308;-72
2022/03/09 10:54:09;;;;;;;;;;;10.10;1.00;;;;;;5135325;27;20363;-72
2022/03/09 10:56:36;;;;;;;;;;;10.20;1.00;;;;;;5134416;27;19912;-73
2022/03/09 10:59:09;;;;;;;;;;;10.60;1.00;;;;;;5135092;27;20363;-73
2022/03/09 11:01:35;;;;;;;;;;;10.80;1.00;;;;;;5133887;27;20448;-74
2022/03/09 11:04:01;;;;;;;;;;;;;;;;;;5134629;27;19990;-72
2022/03/09 11:06:26;;;;;;;;;;;10.90;1.00;;;;;;5134309;27;19976;-72
2022/03/09 11:08:53;;;;;;;;;;;10.70;1.00;;;;;;5135178;27;19911;-72
2022/03/09 11:11:19;;;;;;;;;;;11.00;1.00;;;;;;5134039;27;19908;-72
2022/03/09 11:13:45;;;;;;;;;;;11.00;1.00;;;;;;5134722;27;19908;-72
2022/03/09 11:16:11;;;;;;;;;;;11.00;1.00;;;;;;5134842;27;19930;-72
2022/03/09 11:18:37;;;;;;;;;;;;;;;;;;5134037;27;19939;-72
2022/03/09 11:21:05;;;;;;;;;;;11.50;1.00;;;;;;5134713;27;19907;-72
2022/03/09 11:23:31;;;;;;;;;;;11.30;1.00;;;;;;5133948;27;19908;-72
2022/03/09 11:26:07;;;;;;;;;;;11.40;1.00;;;;;;5134676;27;19916;-72
2022/03/09 11:28:34;;;;;;;;;;;11.60;1.00;;;;;;5133800;27;19918;-74
2022/03/09 11:31:04;;;;;;;;;;;11.80;1.00;;;;;;5134317;27;19915;-73
2022/03/09 11:33:38;;;;;;;;;;;11.80;1.00;;;;;;5133724;27;19964;-73
2022/03/09 11:36:26;;;;;;;;;;;11.70;1.00;;;;;;5116073;27;19915;-73
2022/03/09 11:38:52;;;;;;;;;;;11.80;1.00;;;;;;5134197;27;20359;-72
2022/03/09 11:41:18;;;;;;;;;;;;;;;;;;5133825;27;19931;-72
2022/03/09 11:43:44;;;;;;;;;;;12.10;1.00;;;;;;5115617;27;20343;-72
2022/03/09 11:46:10;;;;;;;;;;;;;;;;;;5134273;27;20379;-72
2022/03/09 11:48:55;;;;;;;;;;;11.90;1.00;;;;;;5111292;28;19947;-73
2022/03/09 11:51:25;;;;;;;;;;;12.30;1.00;;;;;;5112765;28;19907;-73
2022/03/09 11:53:52;;;;;;;;;;;12.30;1.00;;;;;;5113669;28;19908;-73
2022/03/09 11:56:18;;;;;;;;;;;;;;;;;;5113211;28;19915;-74
2022/03/09 11:59:04;;;;;;;;;;;12.40;1.00;;;;;;5111419;28;19908;-73
2022/03/09 12:01:29;;;;;;;;;;;12.30;1.00;;;;;;5112531;28;19916;-73
2022/03/09 12:03:55;;;;;;;;;;;12.70;1.00;;;;;;5113611;28;20364;-73
2022/03/09 12:06:20;;;;;;;;;;;;;;;;;;5113056;28;19908;-72
2022/03/09 12:08:47;;;;;;;;;;;12.70;1.00;;;;;;5114307;28;19916;-73
2022/03/09 12:11:13;;;;;;;;;;;;;;;;;;5113948;28;20360;-72
2022/03/09 12:13:39;;;;;;;;;;;;;;;;;;5113065;28;19960;-72
2022/03/09 12:16:05;;;;;;;;;;;;;;;;;;5113050;28;20418;-72
2022/03/09 12:18:33;;;;;;;;;;;12.80;1.00;;;;;;5112772;28;19908;-71
2022/03/09 12:20:59;;;;;;;;;;;13.10;1.00;;;;;;5099011;28;19908;-74
2022/03/09 12:23:24;;;;;;;;;;;13.00;1.00;;;;;;5112572;28;20387;-75
2022/03/09 12:25:50;;;;;;;;;;;13.10;1.00;;;;;;5114754;28;19998;-73
2022/03/09 12:28:22;;;;;;;;;;;13.20;1.00;;;;;;5114059;28;20374;-74
2022/03/09 12:30:48;;;;;;;;;;;13.10;1.00;;;;;;5111586;28;19916;-74
2022/03/09 12:33:23;;;;;;;;;;;13.10;1.00;;;;;;5112962;28;19923;-74
2022/03/09 12:35:48;;;;;;;;;;;13.30;1.00;;;;;;5112932;28;19915;-74
2022/03/09 12:38:14;;;;;;;;;;;13.50;1.00;;;;;;5112909;28;19908;-74
2022/03/09 12:40:40;;;;;;;;;;;;;;;;;;5112060;28;19904;-74
2022/03/09 12:43:06;;;;;;;;;;;13.60;1.00;;;;;;5111514;28;19908;-74
2022/03/09 12:45:50;;;;;;;;;;;13.70;1.00;;;;;;5106462;28;19919;-74
2022/03/09 12:48:19;;;;;;;;;;;13.70;1.00;;;;;;5094627;28;20436;-74
2022/03/09 12:50:45;;;;;;;;;;;13.70;1.00;;;;;;5112045;28;19907;-74
2022/03/09 12:53:10;;;;;;;;;;;13.80;1.00;;;;;;5114231;28;20383;-74
2022/03/09 12:55:36;;;;;;;;;;;14.20;1.00;;;;;;5114066;28;19919;-74
2022/03/09 12:58:02;;;;;;;;;;;14.20;1.00;;;;;;5133224;28;19919;-74
2022/03/09 13:00:30;;;;;;;;;;;14.10;1.00;;;;;;5132166;28;20275;-75
2022/03/09 13:03:00;;;;;;;;;;;14.20;1.00;;;;;;5132974;28;19919;-74
2022/03/09 13:05:29;;;;;;;;;;;14.40;1.00;;;;;;5132293;28;20279;-74
2022/03/09 13:08:03;;;;;;;;;;;14.30;1.00;;;;;;5114728;28;20008;-76
2022/03/09 13:10:29;;;;;;;;;;;14.40;1.00;;;;;;5133447;27;19912;-75
2022/03/09 13:12:59;;;;;;;;;;;14.50;1.00;;;;;;5137240;27;19928;-75
2022/03/09 13:15:25;;;;;;;;;;;;;;;;;;5136412;27;19961;-75
2022/03/09 13:17:55;;;;;;;;;;;;;;;;;;5118611;27;19957;-74
2022/03/09 13:20:21;;;;;;;;;;;;;;;;;;5111797;27;19912;-74
2022/03/09 13:22:47;;;;;;;;;;;14.90;1.00;;;;;;5122388;27;20019;-75
2022/03/09 13:25:13;;;;;;;;;;;;;;;;;;5133377;27;19908;-75
2022/03/09 13:27:39;;;;;;;;;;;15.10;1.00;;;;;;5115665;28;19914;-71
2022/03/09 13:30:15;;;;;;;;;;;14.90;1.00;;;;;;5116587;28;19912;-72
2022/03/09 13:32:40;;;;;;;;;;;14.90;1.00;;;;;;5115614;28;19916;-73
2022/03/09 13:35:07;;;;;;;;;;;15.00;1.00;;;;;;5116362;28;19914;-70
2022/03/09 13:37:34;;;;;;;;;;;15.30;1.00;;;;;;5115400;28;19939;-73
2022/03/09 13:40:00;;;;;;;;;;;15.40;1.00;;;;;;5119776;27;19908;-70
2022/03/09 13:42:26;;;;;;;;;;;;;;;;;;5115523;28;20326;-80
2022/03/09 13:45:11;;;;;;;;;;;15.20;1.00;;;;;;5116072;28;19916;-69
2022/03/09 13:47:52;;;;;;;;;;;15.40;1.00;;;;;;5115464;28;19908;-69
2022/03/09 13:50:17;;;;;;;;;;;15.60;1.00;;;;;;5115731;28;19920;-74
2022/03/09 13:52:43;;;;;;;;;;;15.80;1.00;;;;;;5131384;27;19923;-73
2022/03/09 13:55:17;;;;;;;;;;;15.50;1.00;;;;;;5136235;27;19907;-73
2022/03/09 13:57:42;;;;;;;;;;;15.40;1.00;;;;;;5135722;27;20383;-73
2022/03/09 14:00:11;;;;;;;;;;;16.00;1.00;;;;;;5136396;27;19915;-72
2022/03/09 14:02:37;;;;;;;;;;;;;;;;;;5135088;27;19954;-72
2022/03/09 14:05:02;;;;;;;;;;;16.00;1.00;;;;;;5136113;27;19907;-74
2022/03/09 14:07:28;;;;;;;;;;;;;;;;;;5135470;27;19957;-74
2022/03/09 14:10:20;;;;;;;;;;;16.20;1.00;;;;;;5117647;27;19911;-74
2022/03/09 14:12:46;;;;;;;;;;;15.80;1.00;;;;;;5130119;27;19994;-75
2022/03/09 14:15:12;;;;;;;;;;;;;;;;;;5136129;27;20363;-74
2022/03/09 14:17:38;;;;;;;;;;;;;;;;;;5135219;27;19915;-74
2022/03/09 14:20:04;;;;;;;;;;;15.80;1.00;;;;;;5135989;27;19907;-73
2022/03/09 14:22:42;;;;;;;;;;;16.10;1.00;;;;;;5134781;27;19914;-74
2022/03/09 14:25:07;;;;;;;;;;;16.20;1.00;;;;;;5135684;27;19907;-73
2022/03/09 14:27:33;;;;;;;;;;;16.00;1.00;;;;;;5135095;27;20386;-73
2022/03/09 14:29:59;;;;;;;;;;;;;;;;;;5135976;27;19915;-73
2022/03/09 14:32:24;;;;;;;;;;;16.00;1.00;;;;;;5135835;27;20389;-73
2022/03/09 14:34:50;;;;;;;;;;;16.40;1.00;;;;;;5116587;27;19908;-73
2022/03/09 14:37:16;;;;;;;;;;;15.90;1.00;;;;;;5135743;27;19914;-73
2022/03/09 14:39:42;;;;;;;;;;;;;;;;;;5134912;27;19916;-72
2022/03/09 14:42:07;;;;;;;;;;;16.10;1.00;;;;;;5135540;27;19994;-72
2022/03/09 14:44:33;;;;;;;;;;;16.30;1.00;;;;;;5134734;27;19907;-73
2022/03/09 14:46:59;;;;;;;;;;;;;;;;;;5135480;27;19908;-74
2022/03/09 14:49:24;;;;;;;;;;;16.70;1.00;;;;;;5135211;27;20368;-74
2022/03/09 14:51:51;;;;;;;;;;;16.40;1.00;;;;;;5116191;27;19911;-73
2022/03/09 14:54:17;;;;;;;;;;;16.60;1.00;;;;;;5135209;27;19907;-73
2022/03/09 14:56:43;;;;;;;;;;;;;;;;;;5116105;27;20010;-74
2022/03/09 14:59:08;;;;;;;;;;;16.20;1.00;;;;;;5116820;27;19926;-74
2022/03/09 15:01:34;;;;;;;;;;;16.60;1.00;;;;;;5134433;27;19912;-74
2022/03/09 15:04:00;;;;;;;;;;;16.80;1.00;;;;;;5135105;27;19908;-74
2022/03/09 15:06:27;;;;;;;;;;;16.80;1.00;;;;;;5116743;27;19986;-74
2022/03/09 15:08:55;;;;;;;;;;;16.50;1.00;;;;;;5134311;27;20367;-74
2022/03/09 15:11:21;;;;;;;;;;;16.10;1.00;;;;;;5116638;27;20055;-74
2022/03/09 15:13:47;;;;;;;;;;;16.30;1.00;;;;;;5134204;27;19994;-74
2022/03/09 15:16:13;;;;;;;;;;;16.00;1.00;;;;;;5135124;27;20014;-74
2022/03/09 15:18:39;;;;;;;;;;;15.90;1.00;;;;;;5134061;27;19951;-72
2022/03/09 15:21:04;;;;;;;;;;;15.90;1.00;;;;;;5134930;27;20295;-72
2022/03/09 15:23:30;;;;;;;;;;;;;;;;;;5134395;27;19955;-73
2022/03/09 15:25:56;;;;;;;;;;;16.50;1.00;;;;;;5134237;27;20407;-72
2022/03/09 15:28:21;;;;;;;;;;;15.80;1.00;;;;;;5134553;27;19911;-72
2022/03/09 15:30:47;;;;;;;;;;;15.90;1.00;;;;;;5134165;27;19917;-73
2022/03/09 15:33:13;;;;;;;;;;;;;;;;;;5134884;27;20367;-72
2022/03/09 15:35:39;;;;;;;;;;;;;;;;;;5116232;27;19908;-73
2022/03/09 15:38:04;;;;;;;;;;;15.70;1.00;;;;;;5116025;27;19968;-72
2022/03/09 15:40:30;;;;;;;;;;;;;;;;;;5132582;27;19954;-73
2022/03/09 15:42:56;;;;;;;;;;;16.00;1.00;;;;;;5113066;28;19912;-73
2022/03/09 15:45:23;;;;;;;;;;;;;;;;;;5118696;27;19923;-73
2022/03/09 15:47:48;;;;;;;;;;;15.90;1.00;;;;;;5116789;27;19914;-73
2022/03/09 15:50:14;;;;;;;;;;;15.60;1.00;;;;;;5117543;27;19921;-73
2022/03/09 15:52:40;;;;;;;;;;;15.90;1.00;;;;;;5113490;28;19926;-73
2022/03/09 15:55:06;;;;;;;;;;;15.60;1.00;;;;;;5106822;27;20438;-73
2022/03/09 15:57:32;;;;;;;;;;;;;;;;;;5115213;27;20360;-75
2022/03/09 15:59:58;;;;;;;;;;;15.10;1.00;;;;;;5115717;27;19964;-75
2022/03/09 16:02:23;;;;;;;;;;;15.10;1.00;;;;;;5134072;27;19911;-75
2022/03/09 16:04:49;;;;;;;;;;;15.00;1.00;;;;;;5133166;27;19908;-74
2022/03/09 16:07:14;;;;;;;;;;;15.10;1.00;;;;;;5134180;27;19914;-77
2022/03/09 16:09:40;;;;;;;;;;;15.00;1.00;;;;;;5133111;27;20316;-76
2022/03/09 16:12:06;;;;;;;;;;;14.80;1.00;;;;;;5133901;27;20260;-74
2022/03/09 16:14:32;;;;;;;;;;;;;;;;;;5133593;27;19911;-73
2022/03/09 16:16:58;;;;;;;;;;;14.90;1.00;;;;;;5133277;27;19907;-73
2022/03/09 16:19:24;;;;;;;;;;;14.80;1.00;;;;;;5133613;27;19908;-73
2022/03/09 16:21:50;;;;;;;;;;;14.50;1.00;;;;;;5132972;27;20271;-73
2022/03/09 16:24:16;;;;;;;;;;;14.40;1.00;;;;;;5133545;27;19907;-72
2022/03/09 16:26:42;;;;;;;;;;;;;;;;;;5132848;27;19934;-72
2022/03/09 16:29:08;;;;;;;;;;;13.90;1.00;;;;;;5133483;27;20287;-72
2022/03/09 16:31:34;;;;;;;;;;;;;;;;;;5133294;27;19964;-72
2022/03/09 16:34:00;;;;;;;;;;;;;;;;;;5133782;27;19956;-72
2022/03/09 16:36:26;;;;;;;;;;;;;;;;;;5133513;27;20313;-72
2022/03/09 16:38:51;;;;;;;;;;;14.00;1.00;;;;;;5132608;27;19904;-73
2022/03/09 16:41:21;;;;;;;;;;;13.60;1.00;;;;;;5133511;27;19952;-73
2022/03/09 16:43:48;;;;;;;;;;;13.80;1.00;;;;;;5132498;27;19957;-70
2022/03/09 16:46:16;;;;;;;;;;;13.70;1.00;;;;;;5133607;27;19911;-70
2022/03/09 16:48:42;;;;;;;;;;;;;;;;;;5113805;28;20268;-72
2022/03/09 16:51:08;;;;;;;;;;;13.40;1.00;;;;;;5133282;28;19915;-73
2022/03/09 16:53:33;;;;;;;;;;;;;;;;;;5133291;28;19908;-72
2022/03/09 16:55:59;;;;;;;;;;;13.10;1.00;;;;;;5132549;28;19908;-71
2022/03/09 16:58:24;;;;;;;;;;;13.30;1.00;;;;;;5133195;28;19911;-72
2022/03/09 17:00:50;;;;;;;;;;;13.10;1.00;;;;;;5132835;28;20359;-72
2022/03/09 17:03:15;;;;;;;;;;;12.60;1.00;;;;;;5114787;28;19912;-72
2022/03/09 17:05:41;;;;;;;;;;;12.60;1.00;;;;;;5132436;28;19908;-72
2022/03/09 17:08:07;;;;;;;;;;;;;;;;;;5133154;28;19915;-72
2022/03/09 17:10:33;;;;;;;;;;;12.60;1.00;;;;;;5133051;28;19922;-72
2022/03/09 17:12:59;;;;;;;;;;;12.30;1.00;;;;;;5113840;28;20352;-72
2022/03/09 17:15:25;;;;;;;;;;;;;;;;;;5125147;28;19922;-72
2022/03/09 17:17:51;;;;;;;;;;;;;;;;;;5128234;28;19916;-72
2022/03/09 17:20:17;;;;;;;;;;;;;;;;;;5123157;28;19908;-71
2022/03/09 17:22:43;;;;;;;;;;;;;;;;;;5108336;28;19934;-72
2022/03/09 17:25:09;;;;;;;;;;;;;;;;;;5117316;28;19937;-72
2022/03/09 17:27:35;;;;;;;;;;;;;;;;;;5106491;28;19907;-69
2022/03/09 17:30:01;;;;;;;;;;;;;;;;;;5128743;28;20037;-69
2022/03/09 17:32:27;;;;;;;;;;;;;;;;;;5129515;28;20006;-70
2022/03/09 17:34:53;;;;;;;;;;;;;;;;;;5128724;28;19938;-70
2022/03/09 17:37:21;;;;;;;;;;;;;;;;;;5127960;28;19918;-70
2022/03/09 17:39:47;;;;;;;;;;;;;;;;;;5116101;28;20332;-70
2022/03/09 17:42:13;;;;;;;;;;;;;;;;;;5120097;28;19920;-70
2022/03/09 17:44:39;;;;;;;;;;;;;;;;;;5108147;28;20420;-74
2022/03/09 17:47:05;;;;;;;;;;;;;;;;;;5128545;28;19931;-69
2022/03/09 17:49:30;;;;;;;;;;;11.20;1.00;;;;;;5132566;28;20428;-69
2022/03/09 17:51:57;;;;;;;;;;;11.20;1.00;;;;;;5127104;28;19916;-69
2022/03/09 17:54:28;;;;;;;;;;;;;;;;;;5121131;28;19965;-69
2022/03/09 17:57:03;;;;;;;;;;;11.00;1.00;;;;;;5114612;27;20006;-69
2022/03/09 17:59:29;;;;;;;;;;;11.10;1.00;;;;;;5136370;27;20006;-69
2022/03/09 18:01:56;;;;;;;;;;;11.00;1.00;;;;;;5135708;27;19955;-69
2022/03/09 18:04:22;;;;;;;;;;;10.80;1.00;;;;;;5118382;27;20048;-69
2022/03/09 18:06:47;;;;;;;;;;;11.00;1.00;;;;;;5114974;28;19961;-69
2022/03/09 18:09:13;;;;;;;;;;;10.90;1.00;;;;;;5097362;28;19912;-69
2022/03/09 18:11:39;;;;;;;;;;;;;;;;;;5124996;27;19990;-72
2022/03/09 18:14:05;;;;;;;;;;;10.90;1.00;;;;;;5115673;28;19908;-69
2022/03/09 18:16:30;;;;;;;;;;;10.80;1.00;;;;;;5115990;28;20007;-69
2022/03/09 18:18:56;;;;;;;;;;;10.90;1.00;;;;;;5114784;28;19908;-69
2022/03/09 18:21:22;;;;;;;;;;;;;;;;;;5115531;28;19915;-69
2022/03/09 18:23:49;;;;;;;;;;;10.90;1.00;;;;;;5096271;28;19908;-69
2022/03/09 18:26:15;;;;;;;;;;;10.70;1.00;;;;;;5115419;28;19908;-69
2022/03/09 18:28:41;;;;;;;;;;;;;;;;;;5130559;27;19960;-73
2022/03/09 18:31:07;;;;;;;;;;;10.80;1.00;;;;;;5135372;27;19907;-69
2022/03/09 18:33:33;;;;;;;;;;;;;;;;;;5135873;27;20393;-69
2022/03/09 18:35:59;;;;;;;;;;;10.60;1.00;;;;;;5134924;27;19911;-69
2022/03/09 18:38:24;;;;;;;;;;;10.60;1.00;;;;;;5135717;27;19908;-69
2022/03/09 18:40:51;;;;;;;;;;;10.50;1.00;;;;;;5134861;27;19907;-69
2022/03/09 18:43:17;;;;;;;;;;;10.50;1.00;;;;;;5132164;27;19908;-69
2022/03/09 18:45:43;;;;;;;;;;;;;;;;;;5113200;27;19947;-73
2022/03/09 18:48:08;;;;;;;;;;;10.40;1.00;;;;;;5112276;28;19965;-69
2022/03/09 18:50:34;;;;;;;;;;;10.40;1.00;;;;;;5098861;27;19958;-69
2022/03/09 18:52:59;;;;;;;;;;;10.30;1.00;;;;;;5117096;27;19908;-69
2022/03/09 18:55:25;;;;;;;;;;;10.20;1.00;;;;;;5117643;27;19912;-69
2022/03/09 18:57:51;;;;;;;;;;;;;;;;;;5132563;27;19907;-69
2022/03/09 19:00:16;;;;;;;;;;;;;;;;;;5128846;27;19919;-69
2022/03/09 19:02:43;;;;;;;;;;;;;;;;;;5121628;27;19926;-72
2022/03/09 19:05:08;;;;;;;;;;;9.90;1.00;;;;;;5132594;27;19955;-69
2022/03/09 19:07:34;;;;;;;;;;;9.90;1.00;;;;;;5129749;27;19962;-68
2022/03/09 19:10:00;;;;;;;;;;;;;;;;;;5128258;27;19916;-69
2022/03/09 19:12:27;;;;;;;;;;;9.80;1.00;;;;;;5103540;28;20280;-69
2022/03/09 19:14:53;;;;;;;;;;;9.90;1.00;;;;;;5113678;28;19957;-69
2022/03/09 19:17:19;;;;;;;;;;;;;;;;;;5116737;27;20307;-70
2022/03/09 19:19:45;;;;;;;;;;;;;;;;;;5122945;27;19964;-70
2022/03/09 19:22:11;;;;;;;;;;;9.60;1.00;;;;;;5126884;27;19955;-75
2022/03/09 19:24:36;;;;;;;;;;;9.60;1.00;;;;;;5120306;28;19912;-71
2022/03/09 19:27:02;;;;;;;;;;;;;;;;;;5116189;28;20422;-72
2022/03/09 19:29:28;;;;;;;;;;;9.30;1.00;;;;;;5138500;27;20319;-70
2022/03/09 19:31:54;;;;;;;;;;;9.40;1.00;;;;;;5124961;27;19911;-74
2022/03/09 19:34:19;;;;;;;;;;;9.40;1.00;;;;;;5126475;27;20433;-78
2022/03/09 19:36:45;;;;;;;;;;;;;;;;;;5112490;27;19915;-79
2022/03/09 19:39:11;;;;;;;;;;;9.40;1.00;;;;;;5136287;27;19914;-78
2022/03/09 19:41:37;;;;;;;;;;;;;;;;;;5118486;27;20278;-79
2022/03/09 19:44:02;;;;;;;;;;;;;;;;;;5116836;27;19919;-79
2022/03/09 19:46:28;;;;;;;;;;;9.30;1.00;;;;;;5120357;27;19908;-76
2022/03/09 19:48:55;;;;;;;;;;;;;;;;;;5139521;27;19955;-83
2022/03/09 19:51:20;;;;;;;;;;;9.10;1.00;;;;;;5137304;27;19908;-75
2022/03/09 19:53:46;;;;;;;;;;;;;;;;;;5129926;27;19969;-81